Time;durP1;ratioP1;P1;durP2;ratioP2;P2;SDS_P1;SDS_P2;PMS_P1;PMS_P2;Temp;Humidity;BMP_temperature;BMP_pressure;BME280_temperature;BME280_humidity;BME280_pressure;Samples;Min_cycle;Max_cycle;Signal;HPM_P1;HPM_P2
2021/09/29 00:01:42;;;;;;;10.93;3.90;;;;;;;14.61;96.81;101673.19;4984839;28;20054;-58
2021/09/29 00:04:09;;;;;;;11.25;3.80;;;;;;;14.50;97.01;101675.19;4990417;28;20723;-59
2021/09/29 00:06:36;;;;;;;9.68;3.53;;;;;;;14.78;93.25;101662.75;4981899;28;20054;-61
2021/09/29 00:09:03;;;;;;;12.88;3.92;;;;;;;14.17;98.30;101670.44;4989083;28;20462;-61
2021/09/29 00:11:29;;;;;;;8.00;3.30;;;;;;;13.97;100.00;101671.53;4971169;28;20529;-60
2021/09/29 00:13:56;;;;;;;12.07;4.05;;;;;;;13.81;100.00;101666.91;4983167;28;20049;-59
2021/09/29 00:16:22;;;;;;;11.23;3.90;;;;;;;14.12;99.90;101667.41;4985143;28;20276;-61
2021/09/29 00:18:50;;;;;;;9.02;3.97;;;;;;;14.94;93.11;101652.31;4973377;28;20053;-60
2021/09/29 00:21:17;;;;;;;10.60;3.70;;;;;;;15.16;91.38;101656.25;4986242;28;20482;-60
2021/09/29 00:23:43;;;;;;;10.15;3.53;;;;;;;14.49;95.49;101655.88;4976315;28;21205;-60
2021/09/29 00:26:10;;;;;;;10.05;4.00;;;;;;;14.06;99.46;101654.81;4988777;28;20152;-61
2021/09/29 00:28:36;;;;;;;10.27;3.90;;;;;;;13.95;100.00;101649.75;4994882;28;20144;-61
2021/09/29 00:31:06;;;;;;;10.43;4.75;;;;;;;13.77;100.00;101645.25;4981871;28;20168;-61
2021/09/29 00:33:37;;;;;;;9.63;4.07;;;;;;;13.93;100.00;101647.25;5003208;28;20049;-60
2021/09/29 00:36:03;;;;;;;9.70;4.45;;;;;;;14.94;94.50;101639.09;4984362;28;20145;-59
2021/09/29 00:38:31;;;;;;;9.05;3.65;;;;;;;15.29;90.79;101632.03;4980983;28;20136;-61
2021/09/29 00:40:58;;;;;;;12.50;4.28;;;;;;;15.46;89.27;101626.81;4981342;28;20141;-59
2021/09/29 00:43:25;;;;;;;13.90;4.40;;;;;;;14.81;91.75;101630.75;4987128;28;20145;-61
2021/09/29 00:45:53;;;;;;;14.07;3.85;;;;;;;14.27;97.61;101622.88;4987206;28;20093;-61
2021/09/29 00:48:19;;;;;;;9.43;4.35;;;;;;;14.43;96.93;101624.81;4993517;28;20145;-61
2021/09/29 00:50:47;;;;;;;13.93;4.63;;;;;;;14.14;99.05;101617.13;4991251;28;20121;-61
2021/09/29 00:53:15;;;;;;;21.98;4.43;;;;;;;13.85;100.00;101613.69;4989392;28;20430;-61
2021/09/29 00:55:41;;;;;;;11.52;4.38;;;;;;;13.84;100.00;101611.22;4992492;28;20132;-61
2021/09/29 00:58:09;;;;;;;13.33;4.40;;;;;;;13.68;100.00;101600.50;4982424;28;20058;-60
2021/09/29 01:00:35;;;;;;;9.90;4.32;;;;;;;13.81;100.00;101606.25;4992378;28;20837;-60
2021/09/29 01:03:03;;;;;;;10.65;4.07;;;;;;;13.77;100.00;101607.53;4985363;28;20070;-60
2021/09/29 01:05:32;;;;;;;10.93;3.90;;;;;;;13.81;100.00;101595.69;4987882;28;20062;-59
2021/09/29 01:08:08;;;;;;;13.52;4.40;;;;;;;13.77;100.00;101589.88;4990510;28;20112;-61
2021/09/29 01:11:06;;;;;;;13.20;4.38;;;;;;;13.73;100.00;101585.88;4982510;28;20161;-59
2021/09/29 01:13:42;;;;;;;12.00;4.28;;;;;;;13.65;100.00;101576.09;4985265;28;20085;-61
2021/09/29 01:16:11;;;;;;;10.45;4.30;;;;;;;13.79;100.00;101585.28;4978945;28;20566;-60
2021/09/29 01:18:42;;;;;;;8.23;4.47;;;;;;;13.73;100.00;101579.78;4986976;28;20523;-61
2021/09/29 01:21:12;;;;;;;11.90;4.85;;;;;;;13.79;100.00;101574.75;4975533;28;20750;-60
2021/09/29 01:24:11;;;;;;;10.10;4.07;;;;;;;13.76;100.00;101569.78;4987845;28;20141;-60
2021/09/29 01:26:40;;;;;;;9.27;4.28;;;;;;;13.69;100.00;101571.34;4980745;28;20129;-61
2021/09/29 01:29:10;;;;;;;14.05;4.50;;;;;;;13.64;100.00;101569.16;4995099;28;20060;-61
2021/09/29 01:31:38;;;;;;;14.18;4.60;;;;;;;13.57;100.00;101556.72;4986279;28;20489;-61
2021/09/29 01:34:08;;;;;;;8.83;4.13;;;;;;;13.56;100.00;101557.69;4985262;28;20054;-60
2021/09/29 01:36:36;;;;;;;11.73;4.40;;;;;;;13.82;100.00;101544.63;4980282;28;20054;-61
2021/09/29 01:39:07;;;;;;;9.45;3.88;;;;;;;14.53;97.18;101543.72;4980288;28;20137;-60
2021/09/29 01:41:34;;;;;;;12.40;5.05;;;;;;;14.81;91.45;101536.50;4988438;28;20137;-60
2021/09/29 01:44:00;;;;;;;11.35;4.85;;;;;;;14.59;94.20;101539.66;4984196;28;20057;-61
2021/09/29 01:46:29;;;;;;;10.80;4.82;;;;;;;15.32;88.95;101528.63;4980968;28;20735;-61
2021/09/29 01:49:19;;;;;;;11.10;4.28;;;;;;;15.43;87.28;101528.34;4985375;28;20077;-60
2021/09/29 01:51:48;;;;;;;6.60;3.85;;;;;;;14.26;95.22;101528.84;4994540;28;20552;-61
2021/09/29 01:54:16;;;;;;;10.85;4.72;;;;;;;14.76;94.50;101527.38;4989294;28;20133;-61
2021/09/29 01:56:44;;;;;;;12.68;4.53;;;;;;;15.10;89.39;101522.09;4974638;28;20096;-61
2021/09/29 01:59:10;;;;;;;9.23;4.10;;;;;;;14.99;90.64;101514.47;4987290;28;20117;-60
2021/09/29 02:01:41;;;;;;;10.57;4.28;;;;;;;14.88;91.65;101522.66;4976402;28;20169;-60
2021/09/29 02:04:10;;;;;;;9.65;4.63;;;;;;;15.30;88.07;101506.81;4985935;28;20152;-61
2021/09/29 02:06:44;;;;;;;10.98;4.20;;;;;;;14.19;94.79;101510.16;4987251;28;20136;-60
2021/09/29 02:09:11;;;;;;;9.38;4.82;;;;;;;15.02;90.06;101509.69;4989126;28;20491;-60
2021/09/29 02:11:37;;;;;;;12.15;4.85;;;;;;;14.10;95.48;101500.53;4984643;28;20062;-61
2021/09/29 02:14:05;;;;;;;11.70;4.78;;;;;;;13.78;98.84;101504.53;4979351;28;20769;-59
2021/09/29 02:16:32;;;;;;;12.57;4.63;;;;;;;13.67;100.00;101490.75;4978780;28;20161;-61
2021/09/29 02:18:59;;;;;;;12.25;4.18;;;;;;;14.61;93.20;101488.34;4981595;28;20148;-61
2021/09/29 02:21:25;;;;;;;12.65;4.88;;;;;;;13.96;98.32;101480.78;4985934;28;20691;-61
2021/09/29 02:23:52;;;;;;;10.18;4.88;;;;;;;13.59;100.00;101484.41;4982755;28;20499;-61
2021/09/29 02:26:18;;;;;;;9.52;4.35;;;;;;;14.01;98.32;101481.19;4990061;28;20813;-60
2021/09/29 02:28:45;;;;;;;13.45;4.95;;;;;;;14.28;93.96;101474.09;4984627;28;20135;-61
2021/09/29 02:31:12;;;;;;;8.57;4.30;;;;;;;14.08;95.40;101470.84;4986993;28;20145;-61
2021/09/29 02:33:38;;;;;;;12.23;4.32;;;;;;;13.50;100.00;101460.75;4992219;28;20333;-60
2021/09/29 02:36:05;;;;;;;12.48;4.60;;;;;;;13.35;100.00;101458.66;4978740;28;20535;-61
2021/09/29 02:38:31;;;;;;;10.30;5.03;;;;;;;13.56;100.00;101460.97;4991476;28;20058;-61
2021/09/29 02:40:57;;;;;;;10.50;4.95;;;;;;;14.05;97.99;101463.22;4976967;28;20470;-61
2021/09/29 02:43:24;;;;;;;10.30;4.45;;;;;;;13.51;100.00;101462.44;4983684;28;20517;-60
2021/09/29 02:45:50;;;;;;;11.32;4.90;;;;;;;13.23;100.00;101450.09;4980782;28;20149;-60
2021/09/29 02:48:17;;;;;;;12.25;4.75;;;;;;;13.18;100.00;101454.16;4981318;28;20113;-60
2021/09/29 02:50:43;;;;;;;11.25;4.88;;;;;;;13.08;100.00;101435.78;4985116;28;20089;-60
2021/09/29 02:53:10;;;;;;;7.80;4.50;;;;;;;14.08;97.87;101435.72;4985383;28;20547;-61
2021/09/29 02:55:36;;;;;;;9.02;4.22;;;;;;;13.38;100.00;101436.44;4982668;28;20051;-61
2021/09/29 02:58:03;;;;;;;10.02;4.68;;;;;;;13.19;100.00;101443.47;4976475;28;20757;-60
2021/09/29 03:00:30;;;;;;;10.20;4.25;;;;;;;13.13;100.00;101441.44;4995654;28;20425;-60
2021/09/29 03:02:59;;;;;;;11.93;4.70;;;;;;;13.01;100.00;101432.88;4990525;28;20440;-61
2021/09/29 03:05:29;;;;;;;9.63;4.88;;;;;;;12.99;100.00;101437.47;4986205;28;20107;-59
2021/09/29 03:07:55;;;;;;;8.98;4.85;;;;;;;12.95;100.00;101430.84;4991425;28;20129;-60
2021/09/29 03:10:22;;;;;;;9.45;4.20;;;;;;;13.01;100.00;101434.69;4976335;28;20058;-58
2021/09/29 03:12:48;;;;;;;11.65;5.00;;;;;;;12.98;100.00;101432.38;4990351;28;20822;-60
2021/09/29 03:15:15;;;;;;;12.40;5.20;;;;;;;12.79;100.00;101435.94;4982987;28;20138;-61
2021/09/29 03:17:41;;;;;;;10.43;4.93;;;;;;;13.48;100.00;101431.09;4996001;28;20091;-61
2021/09/29 03:20:08;;;;;;;7.88;4.78;;;;;;;13.99;95.76;101425.09;4986954;28;20481;-61
2021/09/29 03:22:34;;;;;;;9.60;5.35;;;;;;;13.22;100.00;101416.81;4984642;28;20054;-61
2021/09/29 03:25:01;;;;;;;11.15;5.07;;;;;;;13.00;100.00;101415.44;5000983;28;20472;-60
2021/09/29 03:27:27;;;;;;;8.82;4.82;;;;;;;12.89;100.00;101413.00;4981732;28;20169;-60
2021/09/29 03:29:54;;;;;;;8.23;5.10;;;;;;;12.85;100.00;101406.38;4991508;28;20514;-61
2021/09/29 03:32:20;;;;;;;9.30;5.03;;;;;;;12.82;100.00;101398.78;4985727;28;20102;-58
2021/09/29 03:34:47;;;;;;;12.10;5.18;;;;;;;12.82;100.00;101394.34;4996318;28;20141;-59
2021/09/29 03:37:14;;;;;;;11.52;4.90;;;;;;;12.76;100.00;101401.97;4993325;28;20475;-60
2021/09/29 03:39:40;;;;;;;10.65;4.97;;;;;;;13.70;100.00;101387.63;4974118;28;20173;-61
2021/09/29 03:42:07;;;;;;;14.48;5.32;;;;;;;13.57;100.00;101394.13;4992824;28;20495;-61
2021/09/29 03:44:33;;;;;;;12.55;5.00;;;;;;;13.18;100.00;101391.75;4981408;28;20085;-60
2021/09/29 03:47:00;;;;;;;10.60;5.20;;;;;;;13.00;100.00;101393.56;4991567;28;20467;-59
2021/09/29 03:49:26;;;;;;;8.75;4.93;;;;;;;13.17;100.00;101376.94;4981822;28;20158;-61
2021/09/29 03:51:53;;;;;;;11.95;5.07;;;;;;;13.71;97.16;101373.47;4988386;28;20136;-60
2021/09/29 03:54:19;;;;;;;11.35;5.10;;;;;;;13.51;100.00;101380.72;4986448;28;20078;-61
2021/09/29 03:56:46;;;;;;;11.93;5.57;;;;;;;13.52;100.00;101361.28;4983350;28;20169;-61
2021/09/29 03:59:12;;;;;;;11.48;4.88;;;;;;;13.40;100.00;101372.06;4987543;28;20142;-58
2021/09/29 04:01:39;;;;;;;10.90;5.00;;;;;;;13.49;100.00;101365.06;4988614;28;20100;-61
2021/09/29 04:04:05;;;;;;;13.80;5.10;;;;;;;13.18;100.00;101362.78;4990087;28;20469;-59
2021/09/29 04:06:32;;;;;;;8.30;4.88;;;;;;;14.11;97.36;101358.88;4976460;28;20128;-60
2021/09/29 04:08:59;;;;;;;12.25;4.97;;;;;;;13.93;95.67;101356.31;4983369;28;20058;-61
2021/09/29 04:11:27;;;;;;;9.65;5.30;;;;;;;13.25;100.00;101355.94;4990594;28;20128;-61
2021/09/29 04:13:53;;;;;;;8.73;4.85;;;;;;;12.99;100.00;101357.66;4982235;28;20100;-61
2021/09/29 04:16:20;;;;;;;11.20;4.97;;;;;;;13.90;100.00;101352.19;4991470;28;20056;-61
2021/09/29 04:18:46;;;;;;;12.63;5.10;;;;;;;13.35;100.00;101350.63;4985167;28;20274;-61
2021/09/29 04:21:13;;;;;;;8.73;4.65;;;;;;;13.06;100.00;101359.53;4989624;28;20054;-61
2021/09/29 04:23:40;;;;;;;11.30;5.25;;;;;;;13.25;100.00;101350.66;4987433;28;20710;-60
2021/09/29 04:26:07;;;;;;;11.70;5.22;;;;;;;14.24;100.00;101351.38;4997286;28;20085;-60
2021/09/29 04:28:35;;;;;;;14.50;5.30;;;;;;;13.31;100.00;101351.06;4991958;28;20414;-59
2021/09/29 04:31:03;;;;;;;7.87;4.27;;;;;;;13.09;100.00;101347.03;4980262;28;20583;-61
2021/09/29 04:33:30;;;;;;;8.40;4.63;;;;;;;14.57;97.26;101351.56;4980554;28;20307;-61
2021/09/29 04:35:57;;;;;;;12.48;5.07;;;;;;;13.63;100.00;101347.88;4974082;28;20060;-61
2021/09/29 04:38:24;;;;;;;10.90;5.45;;;;;;;13.23;100.00;101351.78;4995332;28;20092;-61
2021/09/29 04:40:50;;;;;;;10.90;4.95;;;;;;;13.97;100.00;101350.56;4991263;28;20164;-61
2021/09/29 04:43:17;;;;;;;14.02;6.47;;;;;;;13.73;100.00;101351.25;4991182;28;20078;-61
2021/09/29 04:45:43;;;;;;;10.18;5.22;;;;;;;13.43;100.00;101345.41;4984873;28;20058;-60
2021/09/29 04:48:10;;;;;;;10.00;5.10;;;;;;;13.44;100.00;101347.06;4978484;28;20081;-59
2021/09/29 04:50:36;;;;;;;8.75;4.30;;;;;;;14.47;96.63;101349.00;4994613;28;20237;-61
2021/09/29 04:53:03;;;;;;;9.35;5.65;;;;;;;13.82;98.95;101345.03;4983065;28;20149;-60
2021/09/29 04:55:30;;;;;;;11.10;4.78;;;;;;;13.31;100.00;101354.53;4987301;28;20085;-61
2021/09/29 04:57:58;;;;;;;8.32;4.93;;;;;;;13.79;100.00;101347.97;4984711;28;20431;-61
2021/09/29 05:00:25;;;;;;;12.32;4.97;;;;;;;13.73;100.00;101345.97;4994196;28;20386;-61
2021/09/29 05:02:52;;;;;;;10.68;4.38;;;;;;;14.79;94.03;101340.38;4979816;28;20072;-61
2021/09/29 05:05:19;;;;;;;10.03;4.67;;;;;;;13.77;100.00;101343.84;4981965;28;20054;-59
2021/09/29 05:07:49;;;;;;;12.52;4.80;;;;;;;14.16;100.00;101343.44;4989598;28;20140;-61
2021/09/29 05:10:20;;;;;;;8.13;4.78;;;;;;;15.23;90.88;101349.91;4981021;28;20556;-61
2021/09/29 05:12:48;;;;;;;12.40;5.53;;;;;;;14.11;97.58;101340.41;4989782;28;20100;-60
2021/09/29 05:15:14;;;;;;;10.85;4.65;;;;;;;14.46;95.09;101336.78;4979456;28;20129;-59
2021/09/29 05:17:41;;;;;;;10.50;4.13;;;;;;;13.79;100.00;101333.97;4984547;28;20050;-60
2021/09/29 05:20:08;;;;;;;10.60;4.78;;;;;;;13.55;100.00;101337.28;4986565;28;20137;-61
2021/09/29 05:22:35;;;;;;;10.52;4.28;;;;;;;13.34;100.00;101343.69;4986004;28;20153;-61
2021/09/29 05:25:01;;;;;;;9.73;4.38;;;;;;;13.38;100.00;101337.13;4988052;28;20141;-61
2021/09/29 05:27:28;;;;;;;9.73;4.65;;;;;;;14.59;99.46;101331.91;4980713;28;20145;-61
2021/09/29 05:29:54;;;;;;;11.73;4.72;;;;;;;14.34;99.95;101325.69;4978463;28;20136;-61
2021/09/29 05:32:20;;;;;;;10.02;4.50;;;;;;;14.60;100.00;101332.75;4975877;28;20141;-60
2021/09/29 05:34:47;;;;;;;7.68;4.00;;;;;;;13.80;100.00;101335.66;4984351;28;20121;-61
2021/09/29 05:37:13;;;;;;;11.07;4.65;;;;;;;13.49;100.00;101335.25;4989729;28;20092;-60
2021/09/29 05:39:40;;;;;;;10.80;4.50;;;;;;;14.83;99.45;101331.16;4978952;28;20046;-61
2021/09/29 05:42:07;;;;;;;8.93;4.00;;;;;;;15.30;95.07;101331.56;4987512;28;20160;-61
2021/09/29 05:44:34;;;;;;;9.60;4.25;;;;;;;13.95;100.00;101317.41;4972921;28;20140;-61
2021/09/29 05:47:00;;;;;;;11.40;4.22;;;;;;;13.57;100.00;101315.06;4988239;28;20049;-61
2021/09/29 05:49:27;;;;;;;14.07;4.68;;;;;;;13.34;100.00;101311.25;4980472;28;20054;-61
2021/09/29 05:51:53;;;;;;;12.32;5.03;;;;;;;13.47;100.00;101319.59;4990573;28;20050;-59
2021/09/29 05:54:20;;;;;;;10.38;4.30;;;;;;;13.64;100.00;101312.59;4984927;28;20507;-61
2021/09/29 05:56:47;;;;;;;8.55;4.72;;;;;;;13.47;100.00;101316.13;4981658;28;20570;-61
2021/09/29 05:59:14;;;;;;;10.43;3.90;;;;;;;13.22;100.00;101314.06;5006722;28;20056;-61
2021/09/29 06:01:40;;;;;;;8.90;4.07;;;;;;;13.17;100.00;101318.13;4981130;28;20132;-60
2021/09/29 06:04:09;;;;;;;9.75;4.30;;;;;;;13.30;100.00;101316.00;4987112;28;20054;-61
2021/09/29 06:06:35;;;;;;;;;;;;;;;14.13;100.00;101312.06;4986134;28;20046;-61
2021/09/29 06:09:02;;;;;;;13.93;4.65;;;;;;;13.74;100.00;101316.00;4985746;28;19964;-61
2021/09/29 06:11:28;;;;;;;12.05;4.28;;;;;;;14.20;100.00;101313.94;4983738;28;20137;-61
2021/09/29 06:14:00;;;;;;;8.88;3.78;;;;;;;13.36;100.00;101320.66;4976545;28;20136;-61
2021/09/29 06:16:27;;;;;;;8.18;3.63;;;;;;;13.12;100.00;101323.06;4992770;28;20056;-61
2021/09/29 06:18:54;;;;;;;7.47;4.10;;;;;;;13.66;100.00;101321.19;4989699;28;20060;-61
2021/09/29 06:21:21;;;;;;;11.32;3.55;;;;;;;14.65;100.00;101316.44;4987033;28;20668;-60
2021/09/29 06:23:47;;;;;;;9.23;3.50;;;;;;;13.92;100.00;101317.75;4990560;28;20101;-61
2021/09/29 06:26:14;;;;;;;12.18;4.35;;;;;;;13.43;100.00;101320.88;4983206;28;20057;-59
2021/09/29 06:28:40;;;;;;;7.40;3.35;;;;;;;13.45;100.00;101318.91;4987521;28;20050;-61
2021/09/29 06:31:08;;;;;;;10.95;4.18;;;;;;;13.28;100.00;101309.19;4979938;28;20101;-60
2021/09/29 06:33:35;;;;;;;11.98;3.83;;;;;;;14.36;100.00;101307.06;4986384;28;20088;-60
2021/09/29 06:36:03;;;;;;;7.82;3.75;;;;;;;14.02;100.00;101307.91;4979980;28;20153;-61
2021/09/29 06:38:29;;;;;;;7.33;3.97;;;;;;;14.50;100.00;101303.00;4978410;28;20128;-61
2021/09/29 06:40:56;;;;;;;10.93;4.20;;;;;;;13.94;100.00;101306.06;4986201;28;20077;-59
2021/09/29 06:43:23;;;;;;;11.77;4.55;;;;;;;13.90;100.00;101304.72;4983347;28;20061;-61
2021/09/29 06:45:49;;;;;;;11.80;4.40;;;;;;;13.61;100.00;101305.84;4991433;28;20502;-61
2021/09/29 06:48:16;;;;;;;11.63;4.18;;;;;;;13.82;100.00;101299.41;4979578;28;20056;-62
2021/09/29 06:50:43;;;;;;;9.90;5.07;;;;;;;15.19;100.00;101312.41;4987448;28;20137;-62
2021/09/29 06:53:21;;;;;;;12.45;4.70;;;;;;;14.31;100.00;101302.28;4978034;28;20140;-61
2021/09/29 06:55:49;;;;;;;8.90;4.38;;;;;;;14.14;100.00;101295.28;4988309;28;20573;-62
2021/09/29 06:58:17;;;;;;;7.90;3.97;;;;;;;15.11;100.00;101296.53;4985007;28;20082;-62
2021/09/29 07:00:44;;;;;;;7.03;3.95;;;;;;;14.99;100.00;101300.47;4987543;28;20145;-62
2021/09/29 07:03:13;;;;;;;8.98;3.55;;;;;;;14.51;100.00;101299.38;4996914;28;20049;-62
2021/09/29 07:05:40;;;;;;;9.90;4.35;;;;;;;14.11;100.00;101295.56;4987899;28;20441;-62
2021/09/29 07:08:07;;;;;;;8.45;3.83;;;;;;;14.35;100.00;101297.50;4997991;28;20061;-60
2021/09/29 07:10:33;;;;;;;9.75;4.57;;;;;;;14.21;100.00;101298.91;4985128;28;20089;-60
2021/09/29 07:13:00;;;;;;;8.23;4.30;;;;;;;14.54;100.00;101299.03;4996546;28;20049;-61
2021/09/29 07:15:26;;;;;;;11.85;4.20;;;;;;;15.60;100.00;101299.16;4991878;28;20158;-62
2021/09/29 07:17:57;;;;;;;10.02;3.90;;;;;;;14.97;100.00;101298.00;5005192;28;20190;-62
2021/09/29 07:20:24;;;;;;;11.68;4.07;;;;;;;14.46;100.00;101306.94;4982522;28;20447;-62
2021/09/29 07:22:52;;;;;;;7.57;3.33;;;;;;;14.34;100.00;101296.66;4984312;28;20487;-62
2021/09/29 07:25:18;;;;;;;11.68;4.53;;;;;;;14.01;100.00;101293.91;4997479;28;20058;-62
2021/09/29 07:27:45;;;;;;;6.13;3.13;;;;;;;14.81;100.00;101287.41;4992314;28;20137;-61
2021/09/29 07:30:11;;;;;;;7.90;3.15;;;;;;;14.38;100.00;101299.81;4989827;28;20466;-62
2021/09/29 07:32:38;;;;;;;8.25;2.92;;;;;;;14.22;100.00;101293.47;4988214;28;20556;-61
2021/09/29 07:35:05;;;;;;;9.35;3.35;;;;;;;14.02;100.00;101292.91;4985304;28;20118;-59
2021/09/29 07:37:31;;;;;;;9.02;3.33;;;;;;;13.97;100.00;101289.09;4991655;28;20046;-62
2021/09/29 07:40:04;;;;;;;6.53;2.72;;;;;;;14.39;100.00;101290.94;4982029;28;20085;-62
2021/09/29 07:42:30;;;;;;;8.43;3.60;;;;;;;14.57;100.00;101285.56;4993739;28;20091;-62
2021/09/29 07:44:56;;;;;;;6.38;3.85;;;;;;;14.22;100.00;101288.22;4984549;28;20833;-62
2021/09/29 07:47:23;;;;;;;7.45;2.78;;;;;;;14.16;100.00;101277.47;4983484;28;20085;-62
2021/09/29 07:49:49;;;;;;;11.35;3.35;;;;;;;13.66;100.00;101273.75;4978258;28;20136;-62
2021/09/29 07:52:16;;;;;;;9.15;3.40;;;;;;;13.41;100.00;101278.88;4983815;28;20767;-61
2021/09/29 07:54:43;;;;;;;7.55;2.88;;;;;;;13.95;100.00;101276.03;4986858;28;20054;-62
2021/09/29 07:57:09;;;;;;;8.25;3.50;;;;;;;14.53;100.00;101273.63;4984898;28;20133;-62
2021/09/29 07:59:36;;;;;;;7.70;3.28;;;;;;;13.71;100.00;101276.75;4991749;28;20121;-61
2021/09/29 08:02:02;;;;;;;8.85;3.22;;;;;;;13.74;100.00;101280.88;4985417;28;20197;-64
2021/09/29 08:04:29;;;;;;;4.50;3.03;;;;;;;13.54;100.00;101278.44;4988452;28;20105;-63
2021/09/29 08:06:56;;;;;;;6.85;3.25;;;;;;;13.51;100.00;101283.22;4989091;28;20077;-62
2021/09/29 08:09:22;;;;;;;6.10;3.13;;;;;;;13.40;100.00;101277.19;4987366;28;20137;-63
2021/09/29 08:11:49;;;;;;;8.48;3.20;;;;;;;14.18;100.00;101280.78;4998974;28;20130;-63
2021/09/29 08:14:18;;;;;;;6.80;3.78;;;;;;;13.70;100.00;101283.03;4981948;28;20058;-63
2021/09/29 08:16:46;;;;;;;7.22;3.47;;;;;;;13.97;100.00;101273.25;4992999;28;20085;-63
2021/09/29 08:19:14;;;;;;;6.43;3.95;;;;;;;13.83;100.00;101272.84;4982940;28;20530;-63
2021/09/29 08:21:43;;;;;;;4.63;3.03;;;;;;;15.13;100.00;101276.06;4989016;28;20628;-61
2021/09/29 08:24:14;;;;;;;6.07;3.17;;;;;;;14.42;100.00;101283.47;4985763;28;20084;-63
2021/09/29 08:27:00;;;;;;;5.95;3.67;;;;;;;14.00;100.00;101294.88;4992505;28;20542;-63
2021/09/29 08:34:40;;;;;;;9.65;4.10;;;;;;;13.68;100.00;101310.50;4989277;28;20081;-63
2021/09/29 08:39:53;;;;;;;10.15;4.40;;;;;;;14.00;100.00;101307.25;4987929;28;20058;-63
2021/09/29 08:42:29;;;;;;;6.88;3.90;;;;;;;14.21;100.00;101306.81;4978342;28;20491;-62
2021/09/29 08:45:01;;;;;;;10.90;4.10;;;;;;;14.99;100.00;101313.69;4980691;28;20100;-62
2021/09/29 08:47:48;;;;;;;6.90;4.07;;;;;;;15.32;100.00;101306.59;4984179;28;20085;-62
2021/09/29 08:50:56;;;;;;;7.18;4.10;;;;;;;14.78;100.00;101312.34;4987563;28;20598;-62
2021/09/29 09:15:20;;;;;;;7.63;4.90;;;;;;;13.90;100.00;101324.97;4986337;28;20137;-62
2021/09/29 09:17:44;;;;;;;6.97;5.00;;;;;;;13.56;100.00;101336.28;4984492;28;20061;-62
2021/09/29 09:20:16;;;;;;;10.18;5.63;;;;;;;13.47;100.00;101324.88;4990503;28;20475;-62
2021/09/29 09:22:47;;;;;;;8.95;5.25;;;;;;;14.89;100.00;101326.22;4986107;28;20064;-61
2021/09/29 09:25:14;;;;;;;7.85;5.45;;;;;;;13.72;100.00;101330.28;4997281;28;20092;-62
2021/09/29 09:27:46;;;;;;;6.93;5.18;;;;;;;14.08;100.00;101317.00;4979251;28;20085;-61
2021/09/29 09:30:33;;;;;;;8.27;6.05;;;;;;;13.70;100.00;101324.34;4996963;28;20140;-61
2021/09/29 09:33:01;;;;;;;6.00;4.63;;;;;;;14.63;100.00;101327.97;4984264;28;20061;-62
2021/09/29 09:35:46;;;;;;;7.07;4.63;;;;;;;15.62;98.29;101331.53;4987483;28;20125;-61
2021/09/29 09:38:19;;;;;;;8.02;4.93;;;;;;;13.95;100.00;101344.63;4985329;28;20189;-61
2021/09/29 09:40:51;;;;;;;5.47;4.30;;;;;;;14.00;100.00;101331.81;4973246;28;20495;-62
2021/09/29 09:43:19;;;;;;;6.18;4.70;;;;;;;13.44;100.00;101335.69;4988330;28;20535;-61
2021/09/29 09:45:48;;;;;;;6.32;4.80;;;;;;;13.18;100.00;101349.59;4979560;28;20053;-61
2021/09/29 09:48:17;;;;;;;5.07;4.57;;;;;;;13.51;100.00;101344.66;4987295;28;20141;-62
2021/09/29 09:50:44;;;;;;;6.22;4.40;;;;;;;13.98;100.00;101354.88;4983001;28;20058;-62
2021/09/29 09:53:14;;;;;;;6.47;4.32;;;;;;;14.06;100.00;101356.72;4989817;28;20054;-63
2021/09/29 09:55:42;;;;;;;5.95;4.65;;;;;;;15.39;100.00;101357.81;4980898;28;20058;-64
2021/09/29 09:58:08;;;;;;;5.47;3.90;;;;;;;15.78;96.88;101359.81;4990629;28;20434;-64
2021/09/29 10:00:36;;;;;;;5.32;4.18;;;;;;;14.84;100.00;101368.97;4989639;28;23925;-63
2021/09/29 10:03:04;;;;;;;8.13;4.05;;;;;;;15.45;97.28;101371.38;4978265;28;20112;-63
2021/09/29 10:05:31;;;;;;;5.80;3.50;;;;;;;14.49;100.00;101373.44;4985955;28;20142;-62
2021/09/29 10:08:00;;;;;;;5.15;3.42;;;;;;;15.23;99.63;101371.03;4983878;28;20676;-64
2021/09/29 10:27:20;;;;;;;8.90;4.35;;;;;;;12.47;100.00;101371.38;4988143;28;20863;-63
2021/09/29 10:30:01;;;;;;;5.68;3.42;;;;;;;12.99;100.00;101378.72;4991618;28;20129;-63
2021/09/29 10:32:31;;;;;;;5.15;3.53;;;;;;;12.56;100.00;101385.47;4982978;28;20062;-64
2021/09/29 10:37:58;;;;;;;4.15;3.50;;;;;;;13.33;100.00;101392.09;4983655;28;20050;-63
2021/09/29 10:43:04;;;;;;;6.57;3.15;;;;;;;14.23;100.00;101395.41;4983742;28;20054;-64
2021/09/29 10:45:44;;;;;;;3.97;3.17;;;;;;;13.26;100.00;101396.28;4988040;28;20760;-62
2021/09/29 11:05:31;;;;;;;4.10;2.08;;;;;;;13.37;100.00;101404.00;4956824;28;20181;-63
2021/09/29 11:12:00;;;;;;;5.22;1.85;;;;;;;13.37;100.00;101425.06;4984479;28;20112;-63
2021/09/29 11:30:37;;;;;;;5.50;1.23;;;;;;;13.94;100.00;101464.28;4986568;28;19932;-64
2021/09/29 11:33:21;;;;;;;4.03;1.20;;;;;;;13.32;100.00;101450.22;4986262;28;20165;-64
2021/09/29 12:09:15;;;;;;;3.53;1.50;;;;;;;15.11;95.09;101467.44;4979466;28;20054;-64
2021/09/29 12:12:16;;;;;;;2.03;1.30;;;;;;;14.34;98.30;101470.84;4988376;28;20054;-64
2021/09/29 12:14:34;;;;;;;3.03;1.48;;;;;;;14.14;100.00;101472.84;4981077;28;20133;-64
2021/09/29 12:17:00;;;;;;;2.78;1.45;;;;;;;13.55;100.00;101469.88;4991153;28;20451;-65
2021/09/29 12:19:34;;;;;;;3.15;1.60;;;;;;;13.26;100.00;101473.50;4981436;28;20089;-64
2021/09/29 12:22:05;;;;;;;3.95;1.95;;;;;;;13.64;100.00;101465.50;4992278;28;20438;-65
2021/09/29 12:25:10;;;;;;;6.03;2.13;;;;;;;14.36;100.00;101466.22;4976479;28;20097;-65
2021/09/29 12:28:15;;;;;;;7.38;2.53;;;;;;;15.90;93.62;101473.25;4993386;28;20077;-64
2021/09/29 12:30:33;;;;;;;5.93;2.65;;;;;;;16.66;89.36;101471.97;4974301;28;20150;-65
2021/09/29 12:35:56;;;;;;;6.40;2.80;;;;;;;16.51;93.42;101482.41;4982058;28;20084;-62
2021/09/29 12:38:35;;;;;;;5.28;2.95;;;;;;;17.32;91.64;101488.41;4980497;28;20144;-63
2021/09/29 12:41:02;;;;;;;8.07;2.97;;;;;;;17.66;86.20;101478.41;4990955;28;20168;-62
2021/09/29 12:43:28;;;;;;;4.88;2.72;;;;;;;16.79;87.92;101484.63;4980216;28;20533;-62
2021/09/29 12:45:55;;;;;;;8.43;2.53;;;;;;;16.52;85.99;101475.28;4991291;28;20086;-62
2021/09/29 12:48:24;;;;;;;15.43;3.58;;;;;;;16.26;92.46;101536.41;4979049;28;20565;-62
2021/09/29 12:51:00;;;;;;;8.02;2.25;;;;;;;14.84;100.00;101532.72;4983591;28;20062;-63
2021/09/29 12:53:36;;;;;;;15.57;3.95;;;;;;;13.96;100.00;101543.28;4974933;28;20058;-64
2021/09/29 12:58:37;;;;;;;5.75;1.80;;;;;;;13.08;100.00;101520.06;4992651;28;20133;-62
2021/09/29 13:01:04;;;;;;;5.40;1.35;;;;;;;13.01;100.00;101542.66;4988027;28;20137;-63
2021/09/29 13:03:30;;;;;;;6.68;1.38;;;;;;;12.87;100.00;101525.53;4985371;28;20487;-63
2021/09/29 13:05:58;;;;;;;2.97;1.30;;;;;;;12.83;100.00;101526.81;4978805;28;20137;-63
2021/09/29 13:08:25;;;;;;;5.80;1.50;;;;;;;14.81;99.28;101518.00;4985667;28;20054;-64
2021/09/29 13:10:52;;;;;;;13.27;4.68;;;;;;;13.73;100.00;101527.06;4984361;28;20058;-64
2021/09/29 13:13:20;;;;;;;8.23;2.38;;;;;;;13.51;100.00;101525.69;4987004;28;20050;-64
2021/09/29 13:15:50;;;;;;;5.07;1.58;;;;;;;15.57;94.40;101526.06;4984302;28;20588;-63
2021/09/29 13:18:22;;;;;;;6.60;1.67;;;;;;;15.62;95.26;101527.22;4992289;28;20298;-64
2021/09/29 13:20:55;;;;;;;10.00;2.85;;;;;;;14.71;100.00;101524.41;4985822;28;20128;-64
2021/09/29 13:23:26;;;;;;;5.53;2.08;;;;;;;14.67;100.00;101530.97;4977894;28;20145;-62
2021/09/29 13:26:15;;;;;;;3.53;1.70;;;;;;;14.52;100.00;101535.94;4993379;28;20137;-63
2021/09/29 13:36:57;;;;;;;10.90;2.50;;;;;;;14.34;100.00;101557.09;4991446;28;20050;-63
2021/09/29 13:39:24;;;;;;;7.57;2.10;;;;;;;14.35;100.00;101550.88;4981390;28;20418;-63
2021/09/29 13:41:53;;;;;;;7.38;1.67;;;;;;;14.48;100.00;101558.38;4987164;28;20778;-63